Accueil
METAR-TAF:

METAR-TAF

Aéroports :

Koweït, Koweït

Aéroport international de Koweït

latitude: 29-13N, longitude: 047-59E, altitude: 55 m

Observation

Le bulletin a été fait il y a 41 minutes, à 22:00 UTC
Vent 4 kt de nord-ouest
Température 34°C
Humidité 16%
Pression 997 hPa
Visibilité 10 km ou plus
pas de nuages en-dessous de 1500 mètres et pas de cumulonimbus.

METAR: OKBK 272200Z 31004KT CAVOK 34/05 Q0997 NOSIG

Heure: 01:41 (22:41 UTC)

Prévision

Le bulletin a été fait il y a 5 heures et 56 minutes, à 16:45 UTC
Prévision valable du 27 à 18 UTC au 28 à 24 UTC
Vent 3 kt de direction variable
Visibilité: 7000 m
Ciel clair
Evoluant progressivement
du 28 à 00 UTC au 28 à 02 UTC
Vent 10 kt de nord-ouest

TAF: OKBK 271645Z 2718/2824 VRB03KT 7000 SKC BECMG 2800/2802 32010KT

Observations et prévisions météorologiques de plus de 4000 aéroports (messages METAR et TAF).

Les stations disponibles sont représentées par des disques jaunes et rouges sur la carte.

Passer la souris dessus pour voir le nom de la station.

Cliquer dessus pour voir les observations et prévisions météorologiques.

Pour changer de carte: cliquez sur les boutons verts avec une croix noire pour zoomer, sur le bouton vert avec un tiret pour effectuer un zoom arrière, ou sur les flèches vertes pour les cartes adjacentes.


METAR-TAF: